createdAt,value
2019-04-06T00:00:35.555Z,24.25
2019-04-06T00:03:04.475Z,26.57
2019-04-06T00:05:33.043Z,21.02
2019-04-06T00:08:01.639Z,26.70
2019-04-06T00:10:30.215Z,21.05
2019-04-06T00:12:58.781Z,19.30
2019-04-06T00:15:27.374Z,23.75
2019-04-06T00:17:55.955Z,24.85
2019-04-06T00:20:24.569Z,22.48
2019-04-06T00:22:53.131Z,19.12
2019-04-06T00:25:21.708Z,27.93
2019-04-06T00:27:50.277Z,23.25
2019-04-06T00:30:20.283Z,23.45
2019-04-06T00:32:56.487Z,24.75
2019-04-06T00:35:25.060Z,22.75
2019-04-06T00:37:54.650Z,22.35
2019-04-06T00:40:23.292Z,24.27
2019-04-06T00:42:51.853Z,23.20
2019-04-06T00:45:20.425Z,23.47
2019-04-06T00:47:49.015Z,21.55
2019-04-06T00:50:18.655Z,25.12
2019-04-06T00:52:47.315Z,20.05
2019-04-06T00:55:15.912Z,18.40
2019-04-06T00:57:45.459Z,25.72
2019-04-06T01:00:14.608Z,24.20
2019-04-06T01:02:43.262Z,25.52
2019-04-06T01:05:12.019Z,23.83
2019-04-06T01:07:40.596Z,20.92
2019-04-06T01:10:09.322Z,24.12
2019-04-06T01:12:38.028Z,26.00
2019-04-06T01:15:09.250Z,23.98
2019-04-06T01:17:37.832Z,22.52
2019-04-06T01:20:07.412Z,20.55
2019-04-06T01:22:37.276Z,23.45
2019-04-06T01:25:07.600Z,26.52
2019-04-06T01:27:36.228Z,20.77
2019-04-06T01:30:06.850Z,19.60
2019-04-06T01:32:35.811Z,25.62
2019-04-06T01:35:05.408Z,19.27
2019-04-06T01:37:34.069Z,24.35
2019-04-06T01:40:03.218Z,19.02
2019-04-06T01:42:31.866Z,20.02
2019-04-06T01:45:01.422Z,22.82
2019-04-06T01:47:29.990Z,23.75
2019-04-06T01:49:58.624Z,18.07
2019-04-06T01:52:27.120Z,24.82
2019-04-06T01:54:55.700Z,21.95
2019-04-06T01:57:24.292Z,24.00
2019-04-06T01:59:53.823Z,21.80
2019-04-06T02:02:24.093Z,22.20
2019-04-06T02:04:52.670Z,20.50
2019-04-06T02:07:22.318Z,24.85
2019-04-06T02:09:50.891Z,20.57
2019-04-06T02:12:19.456Z,22.32
2019-04-06T02:14:48.363Z,23.10
2019-04-06T02:17:16.944Z,22.50
2019-04-06T02:19:45.634Z,21.80
2019-04-06T02:22:14.165Z,24.40
2019-04-06T02:24:42.778Z,20.37
2019-04-06T02:27:11.365Z,23.67
2019-04-06T02:29:39.915Z,23.38
2019-04-06T02:32:11.031Z,24.63
2019-04-06T02:34:43.976Z,22.15
2019-04-06T02:37:30.400Z,20.70
2019-04-06T02:40:08.023Z,22.73
2019-04-06T02:42:44.192Z,21.23
2019-04-06T02:45:12.966Z,27.87
2019-04-06T02:47:41.680Z,22.32
2019-04-06T02:50:10.368Z,21.87
2019-04-06T02:52:39.107Z,21.30
2019-04-06T02:55:08.119Z,24.77
2019-04-06T02:57:37.698Z,25.27
2019-04-06T03:00:08.108Z,21.07
2019-04-06T03:02:37.116Z,22.42
2019-04-06T03:05:07.452Z,27.65
2019-04-06T03:07:36.182Z,23.45
2019-04-06T03:10:06.296Z,23.42
2019-04-06T03:12:34.935Z,20.30
2019-04-06T03:15:03.808Z,19.67
2019-04-06T03:17:32.333Z,26.77
2019-04-06T03:20:00.911Z,20.55
2019-04-06T03:22:29.476Z,23.85
2019-04-06T03:24:58.195Z,24.02
2019-04-06T03:27:26.783Z,19.48
2019-04-06T03:29:58.226Z,22.70
2019-04-06T03:32:25.981Z,23.38
2019-04-06T03:34:54.636Z,22.73
2019-04-06T03:37:23.199Z,21.20
2019-04-06T03:39:51.783Z,22.70
2019-04-06T03:42:20.371Z,19.65
2019-04-06T03:44:48.915Z,23.70
2019-04-06T03:47:17.600Z,22.02
2019-04-06T03:49:46.162Z,21.75
2019-04-06T03:52:14.768Z,23.70
2019-04-06T03:54:43.430Z,26.45
2019-04-06T03:57:16.291Z,25.15
2019-04-06T03:59:44.140Z,19.12
2019-04-06T04:02:12.732Z,22.13
2019-04-06T04:04:42.244Z,22.25
2019-04-06T04:07:11.747Z,22.45
2019-04-06T04:09:40.542Z,19.23
2019-04-06T04:12:09.200Z,26.15
2019-04-06T04:14:37.780Z,23.90
2019-04-06T04:17:06.362Z,22.82
2019-04-06T04:19:34.918Z,25.05
2019-04-06T04:22:03.716Z,25.37
2019-04-06T04:24:32.811Z,20.25
2019-04-06T04:27:01.331Z,25.70
2019-04-06T04:29:30.915Z,30.05
2019-04-06T04:31:59.494Z,22.95
2019-04-06T04:34:28.075Z,24.15
2019-04-06T04:36:57.068Z,19.50
2019-04-06T04:39:25.626Z,19.20
2019-04-06T04:41:54.273Z,21.75
2019-04-06T04:44:22.889Z,24.80
2019-04-06T04:46:51.776Z,25.52
2019-04-06T04:49:20.479Z,23.22
2019-04-06T04:51:49.109Z,21.60
2019-04-06T04:54:18.870Z,20.75
2019-04-06T04:56:47.446Z,26.42
2019-04-06T04:59:16.031Z,26.68
2019-04-06T05:01:44.627Z,21.70
2019-04-06T05:04:13.215Z,25.12
2019-04-06T05:06:41.789Z,22.70
2019-04-06T05:09:10.432Z,25.23
2019-04-06T05:11:43.016Z,24.82
2019-04-06T05:14:50.336Z,17.70
2019-04-06T05:17:19.329Z,21.73
2019-04-06T05:19:47.936Z,24.20
2019-04-06T05:22:17.519Z,26.23
2019-04-06T05:24:46.087Z,24.25
2019-04-06T05:27:14.742Z,23.70
2019-04-06T05:29:43.879Z,21.20
2019-04-06T05:32:12.740Z,24.98
2019-04-06T05:34:41.360Z,21.00
2019-04-06T05:37:09.984Z,22.35
2019-04-06T05:39:39.467Z,25.57
2019-04-06T05:42:08.194Z,23.50
2019-04-06T05:44:36.856Z,21.65
2019-04-06T05:47:06.489Z,20.85
2019-04-06T05:49:35.016Z,28.50
2019-04-06T05:52:03.983Z,24.32
2019-04-06T05:54:32.718Z,22.85
2019-04-06T05:57:01.641Z,25.75
2019-04-06T05:59:30.192Z,20.05
2019-04-06T06:01:58.858Z,24.07
2019-04-06T06:04:27.434Z,20.12
2019-04-06T06:06:56.010Z,21.77
2019-04-06T06:09:25.085Z,20.68
2019-04-06T06:11:55.589Z,23.20
2019-04-06T06:14:24.939Z,21.62
2019-04-06T06:16:53.526Z,23.60
2019-04-06T06:19:24.033Z,18.92
2019-04-06T06:21:52.598Z,21.15
2019-04-06T06:24:21.170Z,23.77
2019-04-06T06:26:49.744Z,22.25
2019-04-06T06:29:18.662Z,20.68
2019-04-06T06:31:47.284Z,22.13
2019-04-06T06:34:15.936Z,19.05
2019-04-06T06:36:45.965Z,22.27
2019-04-06T06:39:14.613Z,18.75
2019-04-06T06:41:43.193Z,20.75
2019-04-06T06:44:11.833Z,23.50
2019-04-06T06:46:40.410Z,23.25
2019-04-06T06:49:09.007Z,20.97
2019-04-06T06:51:37.557Z,21.12
2019-04-06T06:54:07.476Z,24.37
2019-04-06T06:56:36.272Z,18.40
2019-04-06T06:59:05.095Z,22.80
2019-04-06T07:01:33.653Z,18.12
2019-04-06T07:04:02.255Z,18.90
2019-04-06T07:06:30.810Z,21.70
2019-04-06T07:08:59.458Z,17.32
2019-04-06T07:11:28.017Z,19.10
2019-04-06T07:13:56.658Z,17.65
2019-04-06T07:16:25.347Z,19.48
2019-04-06T07:18:53.939Z,17.92
2019-04-06T07:21:22.587Z,17.30
2019-04-06T07:23:51.152Z,18.37
2019-04-06T07:26:19.858Z,17.90
2019-04-06T07:28:48.519Z,18.20
2019-04-06T07:31:17.085Z,19.35
2019-04-06T07:33:45.673Z,19.67
2019-04-06T07:36:14.253Z,19.20
2019-04-06T07:38:42.835Z,17.23
2019-04-06T07:41:11.429Z,20.10
2019-04-06T07:43:40.191Z,16.35
2019-04-06T07:46:08.958Z,21.05
2019-04-06T07:48:37.904Z,19.77
2019-04-06T07:51:06.479Z,20.10
2019-04-06T07:53:35.032Z,21.25
2019-04-06T07:56:03.681Z,19.62
2019-04-06T07:58:32.307Z,17.37
2019-04-06T08:01:00.876Z,17.45
2019-04-06T08:03:29.441Z,21.15
2019-04-06T08:05:58.029Z,19.02
2019-04-06T08:08:28.645Z,18.42
2019-04-06T08:10:57.107Z,18.73
2019-04-06T08:13:25.786Z,16.82
2019-04-06T08:15:54.382Z,22.37
2019-04-06T08:18:22.981Z,15.78
2019-04-06T08:20:51.722Z,18.70
2019-04-06T08:23:20.229Z,17.20
2019-04-06T08:25:49.207Z,16.85
2019-04-06T08:28:17.779Z,14.28
2019-04-06T08:30:47.028Z,16.85
2019-04-06T08:33:15.764Z,19.82
2019-04-06T08:35:44.361Z,15.23
2019-04-06T08:38:12.948Z,16.82
2019-04-06T08:40:41.522Z,15.23
2019-04-06T08:43:10.098Z,13.08
2019-04-06T08:45:38.772Z,15.65
2019-04-06T08:48:07.576Z,20.02
2019-04-06T08:50:36.333Z,18.95
2019-04-06T08:53:04.899Z,14.43
2019-04-06T08:55:33.522Z,16.02
2019-04-06T08:58:02.070Z,14.75
2019-04-06T09:00:30.850Z,16.20
2019-04-06T09:03:00.404Z,13.53
2019-04-06T09:05:29.371Z,16.90
2019-04-06T09:07:57.963Z,13.68
2019-04-06T09:10:26.539Z,17.23
2019-04-06T09:12:58.724Z,15.53
2019-04-06T09:15:29.358Z,17.52
2019-04-06T09:18:00.612Z,15.00
2019-04-06T09:20:29.248Z,18.35
2019-04-06T09:22:58.473Z,13.58
2019-04-06T09:25:27.106Z,11.85
2019-04-06T09:27:55.670Z,18.20
2019-04-06T09:30:24.262Z,16.82
2019-04-06T09:32:52.834Z,10.98
2019-04-06T09:35:21.428Z,15.18
2019-04-06T09:37:50.015Z,13.48
2019-04-06T09:40:19.607Z,14.93
2019-04-06T09:42:48.176Z,17.15
2019-04-06T09:45:18.409Z,15.80
2019-04-06T09:47:51.474Z,12.23
2019-04-06T09:50:27.713Z,12.18
2019-04-06T09:53:10.026Z,12.35
2019-04-06T09:58:31.099Z,12.33
2019-04-06T10:01:01.295Z,13.10
2019-04-06T10:03:43.786Z,14.87
2019-04-06T10:08:55.995Z,13.22
2019-04-06T10:14:01.397Z,15.10
2019-04-06T10:16:43.912Z,11.63
2019-04-06T10:21:52.909Z,13.55
2019-04-06T10:24:23.193Z,11.70
2019-04-06T10:27:02.227Z,18.87
2019-04-06T10:29:50.232Z,18.40
2019-04-06T10:32:23.616Z,15.95
2019-04-06T10:35:02.570Z,13.72
2019-04-06T10:37:48.117Z,18.85
2019-04-06T10:40:30.451Z,13.20
2019-04-06T10:43:15.697Z,13.20
2019-04-06T10:45:49.277Z,17.00
2019-04-06T10:48:31.323Z,16.37
2019-04-06T10:51:01.545Z,12.53
2019-04-06T10:53:43.913Z,15.60
2019-04-06T10:56:31.243Z,15.20
2019-04-06T10:59:16.637Z,19.25
2019-04-06T11:01:46.861Z,16.30
2019-04-06T11:04:17.256Z,17.92
2019-04-06T11:07:00.130Z,14.85
2019-04-06T11:09:30.389Z,15.32
2019-04-06T11:12:16.826Z,18.98
2019-04-06T11:15:03.522Z,15.03
2019-04-06T11:17:46.332Z,16.55
2019-04-06T11:20:22.344Z,21.77
2019-04-06T11:22:52.583Z,18.62
2019-04-06T11:25:25.587Z,16.60
2019-04-06T11:28:03.585Z,18.48
2019-04-06T11:30:48.367Z,16.12
2019-04-06T11:33:33.803Z,19.57
2019-04-06T11:36:04.369Z,15.10
2019-04-06T11:38:44.754Z,11.25
2019-04-06T11:41:20.931Z,13.65
2019-04-06T11:43:51.143Z,19.85
2019-04-06T11:46:21.367Z,16.40
2019-04-06T11:49:08.397Z,14.60
2019-04-06T11:51:56.725Z,16.75
2019-04-06T11:54:27.190Z,13.32
2019-04-06T11:57:12.323Z,17.75
2019-04-06T11:59:49.756Z,12.40
2019-04-06T12:02:25.626Z,17.27
2019-04-06T12:05:09.851Z,9.93
2019-04-06T12:07:45.844Z,16.17
2019-04-06T12:10:32.437Z,15.38
2019-04-06T12:13:05.505Z,13.55
2019-04-06T12:15:43.715Z,16.75
2019-04-06T12:18:14.288Z,18.27
2019-04-06T12:21:01.203Z,15.70
2019-04-06T12:23:48.056Z,15.10
2019-04-06T12:26:30.873Z,15.95
2019-04-06T12:29:16.121Z,14.70
2019-04-06T12:31:57.039Z,16.62
2019-04-06T12:34:44.345Z,16.80
2019-04-06T12:37:22.638Z,11.43
2019-04-06T12:40:09.351Z,20.02
2019-04-06T12:42:55.528Z,13.50
2019-04-06T12:45:41.098Z,13.50
2019-04-06T12:48:26.197Z,15.93
2019-04-06T12:51:11.518Z,15.32
2019-04-06T12:53:58.053Z,13.50
2019-04-06T12:56:30.743Z,14.68
2019-04-06T12:59:03.481Z,13.08
2019-04-06T13:01:42.210Z,15.80
2019-04-06T13:04:15.425Z,13.15
2019-04-06T13:06:55.754Z,17.25
2019-04-06T13:09:28.973Z,15.98
2019-04-06T13:12:15.399Z,16.97
2019-04-06T13:14:54.857Z,15.18
2019-04-06T13:17:42.461Z,16.85
2019-04-06T13:20:15.789Z,8.25
2019-04-06T13:22:52.502Z,15.95
2019-04-06T13:25:40.957Z,18.62
2019-04-06T13:28:19.926Z,12.93
2019-04-06T13:31:04.130Z,13.68
2019-04-06T13:33:44.266Z,17.17
2019-04-06T13:36:26.610Z,12.80
2019-04-06T13:38:56.902Z,15.75
2019-04-06T13:41:31.479Z,18.50
2019-04-06T13:44:04.860Z,16.25
2019-04-06T13:46:35.304Z,15.55
2019-04-06T13:49:11.644Z,13.45
2019-04-06T13:51:54.218Z,17.82
2019-04-06T13:54:28.134Z,16.27
2019-04-06T13:57:08.294Z,17.62
2019-04-06T13:59:39.020Z,16.80
2019-04-06T14:02:21.254Z,14.78
2019-04-06T14:04:54.263Z,19.23
2019-04-06T14:07:25.004Z,16.23
2019-04-06T14:10:10.672Z,14.40
2019-04-06T14:12:55.980Z,17.82
2019-04-06T14:15:26.283Z,16.17
2019-04-06T14:18:12.441Z,20.32
2019-04-06T14:20:45.742Z,17.82
2019-04-06T14:23:34.367Z,17.05
2019-04-06T14:26:20.069Z,15.35
2019-04-06T14:28:50.419Z,14.90
2019-04-06T14:31:37.341Z,18.32
2019-04-06T14:34:07.635Z,14.53
2019-04-06T14:36:43.867Z,18.77
2019-04-06T14:39:23.206Z,14.70
2019-04-06T14:42:11.814Z,15.95
2019-04-06T14:44:42.136Z,13.75
2019-04-06T14:47:28.750Z,20.55
2019-04-06T14:49:58.979Z,17.70
2019-04-06T14:52:35.124Z,12.40
2019-04-06T14:55:21.795Z,11.05
2019-04-06T14:57:58.099Z,11.18
2019-04-06T15:00:31.246Z,17.62
2019-04-06T15:03:10.429Z,16.95
2019-04-06T15:05:46.596Z,13.18
2019-04-06T15:08:16.954Z,18.15
2019-04-06T15:10:49.953Z,21.82
2019-04-06T15:13:36.686Z,13.85
2019-04-06T15:16:09.599Z,20.80
2019-04-06T15:18:52.815Z,18.52
2019-04-06T15:21:23.079Z,20.20
2019-04-06T15:23:53.353Z,16.15
2019-04-06T15:26:29.680Z,18.00
2019-04-06T15:29:08.619Z,18.90
2019-04-06T15:31:47.823Z,18.42
2019-04-06T15:34:10.792Z,17.55
2019-04-06T15:36:46.907Z,18.50
2019-04-06T15:39:17.139Z,19.27
2019-04-06T15:41:56.267Z,20.05
2019-04-06T15:44:28.350Z,18.00
2019-04-06T15:46:58.702Z,19.98
2019-04-06T15:49:32.081Z,19.75
2019-04-06T15:52:11.056Z,16.57
2019-04-06T15:54:37.646Z,22.37
2019-04-06T15:57:11.217Z,21.25
2019-04-06T15:59:47.819Z,15.98
2019-04-06T16:02:26.962Z,16.97
2019-04-06T16:05:13.264Z,17.27
2019-04-06T16:07:49.017Z,18.15
2019-04-06T16:10:28.318Z,16.00
2019-04-06T16:13:04.569Z,17.92
2019-04-06T16:15:45.264Z,18.23
2019-04-06T16:18:33.889Z,19.98
2019-04-06T16:21:09.804Z,18.35
2019-04-06T16:24:03.311Z,15.65
2019-04-06T16:26:45.714Z,20.52
2019-04-06T16:29:18.821Z,22.73
2019-04-06T16:32:11.970Z,21.33
2019-04-06T16:34:39.723Z,17.23
2019-04-06T16:37:19.229Z,17.10
2019-04-06T16:39:55.611Z,13.48
2019-04-06T16:42:32.473Z,19.75
2019-04-06T16:45:05.599Z,16.67
2019-04-06T16:47:50.756Z,18.32
2019-04-06T16:50:23.720Z,17.65
2019-04-06T16:52:56.436Z,16.00
2019-04-06T16:55:41.899Z,18.02
2019-04-06T16:58:27.227Z,18.25
2019-04-06T17:01:00.479Z,19.67
2019-04-06T17:03:30.739Z,19.05
2019-04-06T17:06:07.362Z,17.45
2019-04-06T17:08:52.681Z,18.40
2019-04-06T17:11:39.372Z,19.37
2019-04-06T17:14:09.707Z,19.32
2019-04-06T17:16:55.916Z,18.80
2019-04-06T17:19:26.174Z,21.05
2019-04-06T17:22:02.531Z,16.80
2019-04-06T17:24:38.735Z,21.70
2019-04-06T17:27:17.806Z,23.25
2019-04-06T17:29:59.875Z,20.27
2019-04-06T17:32:36.001Z,18.10
2019-04-06T17:35:05.420Z,20.70
2019-04-06T17:37:35.759Z,16.82
2019-04-06T17:40:25.432Z,21.00
2019-04-06T17:43:07.914Z,19.42
2019-04-06T17:45:43.993Z,26.27
2019-04-06T17:48:14.671Z,19.35
2019-04-06T17:50:47.670Z,20.72
2019-04-06T17:53:23.828Z,19.57
2019-04-06T17:56:12.546Z,20.75
2019-04-06T17:58:42.864Z,23.60
2019-04-06T18:01:31.920Z,20.72
2019-04-06T18:04:02.270Z,26.12
2019-04-06T18:06:41.384Z,23.32
2019-04-06T18:09:14.384Z,23.55
2019-04-06T18:11:56.764Z,21.52
2019-04-06T18:14:25.390Z,25.08
2019-04-06T18:16:53.922Z,23.02
2019-04-06T18:19:22.800Z,25.75
2019-04-06T18:21:51.671Z,25.32
2019-04-06T18:24:20.338Z,25.85
2019-04-06T18:26:49.730Z,25.80
2019-04-06T18:29:18.477Z,19.82
2019-04-06T18:31:49.028Z,25.30
2019-04-06T18:34:18.335Z,26.17
2019-04-06T18:36:49.123Z,21.55
2019-04-06T18:39:19.469Z,26.70
2019-04-06T18:41:48.005Z,25.90
2019-04-06T18:44:17.557Z,25.30
2019-04-06T18:46:46.199Z,27.55
2019-04-06T18:49:14.749Z,27.85
2019-04-06T18:51:43.710Z,21.48
2019-04-06T18:54:12.406Z,23.45
2019-04-06T18:56:41.239Z,27.87
2019-04-06T18:59:09.894Z,30.27
2019-04-06T19:01:38.559Z,28.35
2019-04-06T19:04:07.786Z,22.17
2019-04-06T19:06:36.545Z,25.62
2019-04-06T19:09:19.437Z,26.48
2019-04-06T19:11:38.273Z,23.73
2019-04-06T19:14:06.870Z,26.57
2019-04-06T19:16:36.669Z,21.77
2019-04-06T19:19:05.692Z,24.57
2019-04-06T19:21:34.858Z,23.65
2019-04-06T19:24:03.452Z,24.05
2019-04-06T19:26:33.825Z,28.35
2019-04-06T19:29:02.772Z,25.27
2019-04-06T19:31:31.763Z,25.70
2019-04-06T19:34:00.528Z,25.62
2019-04-06T19:36:29.446Z,24.10
2019-04-06T19:38:58.080Z,30.30
2019-04-06T19:41:27.116Z,25.02
2019-04-06T19:43:58.194Z,28.77
2019-04-06T19:46:27.134Z,29.77
2019-04-06T19:48:56.176Z,28.77
2019-04-06T19:51:24.913Z,33.63
2019-04-06T19:53:53.637Z,31.15
2019-04-06T19:56:22.310Z,35.08
2019-04-06T19:58:50.830Z,32.98
2019-04-06T20:01:19.438Z,33.70
2019-04-06T20:03:48.027Z,31.73
2019-04-06T20:06:16.688Z,34.43
2019-04-06T20:08:45.273Z,34.08
2019-04-06T20:11:14.247Z,34.15
2019-04-06T20:13:44.414Z,38.13
2019-04-06T20:16:12.984Z,37.05
2019-04-06T20:18:42.057Z,32.65
2019-04-06T20:21:10.751Z,36.55
2019-04-06T20:23:39.312Z,33.78
2019-04-06T20:26:07.996Z,37.25
2019-04-06T20:28:36.566Z,32.10
2019-04-06T20:31:05.164Z,29.48
2019-04-06T20:33:35.027Z,34.20
2019-04-06T20:36:04.686Z,36.48
2019-04-06T20:38:33.348Z,32.30
2019-04-06T20:41:01.943Z,34.08
2019-04-06T20:43:31.077Z,33.20
2019-04-06T20:45:59.746Z,31.42
2019-04-06T20:48:30.359Z,31.95
2019-04-06T20:50:59.902Z,31.93
2019-04-06T20:53:30.491Z,30.77
2019-04-06T20:56:01.006Z,34.23
2019-04-06T20:58:30.017Z,31.60
2019-04-06T21:00:58.848Z,36.63
2019-04-06T21:03:28.159Z,32.53
2019-04-06T21:05:56.908Z,37.78
2019-04-06T21:08:25.864Z,29.92
2019-04-06T21:10:54.530Z,33.53
2019-04-06T21:13:25.180Z,33.75
2019-04-06T21:15:54.338Z,32.70
2019-04-06T21:18:23.176Z,29.98
2019-04-06T21:20:53.379Z,29.15
2019-04-06T21:23:22.916Z,31.23
2019-04-06T21:25:51.903Z,33.50
2019-04-06T21:28:21.308Z,35.30
2019-04-06T21:30:50.130Z,32.80
2019-04-06T21:33:19.823Z,32.10
2019-04-06T21:35:49.016Z,31.33
2019-04-06T21:38:18.250Z,30.65
2019-04-06T21:40:46.977Z,34.03
2019-04-06T21:43:17.273Z,32.20
2019-04-06T21:45:46.797Z,34.73
2019-04-06T21:48:16.023Z,34.92
2019-04-06T21:50:45.551Z,41.63
2019-04-06T21:53:14.138Z,37.85
2019-04-06T21:55:42.732Z,39.05
2019-04-06T21:58:11.982Z,39.92
2019-04-06T22:00:51.341Z,37.93
2019-04-06T22:03:21.018Z,39.30
2019-04-06T22:05:50.474Z,38.00
2019-04-06T22:08:19.286Z,38.20
2019-04-06T22:10:47.866Z,40.90
2019-04-06T22:13:16.546Z,34.45
2019-04-06T22:15:46.254Z,39.00
2019-04-06T22:18:14.835Z,38.15
2019-04-06T22:20:43.850Z,47.88
2019-04-06T22:23:13.048Z,37.13
2019-04-06T22:25:41.759Z,41.40
2019-04-06T22:28:10.906Z,41.08
2019-04-06T22:30:40.507Z,35.73
2019-04-06T22:33:09.291Z,35.35
2019-04-06T22:35:38.323Z,39.25
2019-04-06T22:38:08.106Z,35.92
2019-04-06T22:40:37.054Z,35.73
2019-04-06T22:43:06.581Z,37.98
2019-04-06T22:45:41.450Z,35.55
2019-04-06T22:48:10.640Z,33.42
2019-04-06T22:50:39.273Z,43.13
2019-04-06T22:53:07.941Z,37.53
2019-04-06T22:55:38.034Z,37.05
2019-04-06T22:58:06.723Z,35.65
2019-04-06T23:00:43.240Z,42.15
2019-04-06T23:03:26.450Z,36.95
2019-04-06T23:05:57.238Z,36.53
2019-04-06T23:08:33.848Z,30.43
2019-04-06T23:11:04.742Z,32.98
2019-04-06T23:13:33.405Z,32.58
2019-04-06T23:16:02.093Z,36.48
2019-04-06T23:18:31.096Z,33.20
2019-04-06T23:20:59.712Z,35.43
2019-04-06T23:23:29.260Z,35.05
2019-04-06T23:25:57.856Z,32.33
2019-04-06T23:28:26.522Z,31.48
2019-04-06T23:30:55.085Z,32.23
2019-04-06T23:33:25.656Z,35.60
2019-04-06T23:35:54.214Z,31.33
2019-04-06T23:38:24.517Z,33.40
2019-04-06T23:40:53.571Z,33.78
2019-04-06T23:43:22.194Z,31.93
2019-04-06T23:45:51.573Z,29.95
2019-04-06T23:48:20.508Z,32.98
2019-04-06T23:50:49.884Z,30.97
2019-04-06T23:53:19.062Z,31.33
2019-04-06T23:55:49.823Z,32.00
2019-04-06T23:58:18.876Z,43.17
